Time;durP1;ratioP1;P1;durP2;ratioP2;P2;SDS_P1;SDS_P2;PMS_P1;PMS_P2;Temp;Humidity;BMP_temperature;BMP_pressure;BME280_temperature;BME280_humidity;BME280_pressure;Samples;Min_cycle;Max_cycle;Signal;HPM_P1;HPM_P2
2023/01/22 00:00:42;;;;;;;4.00;3.00;;;-0.20;99.90;;;;;;5014553;28;20268;-88
2023/01/22 00:03:08;;;;;;;4.17;3.03;;;-0.10;99.90;;;;;;5032259;28;20674;-87
2023/01/22 00:05:33;;;;;;;3.50;2.73;;;-0.10;99.90;;;;;;5032322;28;20180;-87
2023/01/22 00:07:59;;;;;;;3.97;2.90;;;-0.10;99.90;;;;;;5032101;28;20208;-88
2023/01/22 00:10:24;;;;;;;3.33;2.40;;;-0.10;99.90;;;;;;5014435;28;20225;-87
2023/01/22 00:12:50;;;;;;;3.03;2.57;;;0.00;99.90;;;;;;5014713;28;20239;-87
2023/01/22 00:15:16;;;;;;;4.10;3.27;;;-0.10;99.90;;;;;;5032181;28;20192;-88
2023/01/22 00:17:41;;;;;;;3.70;2.97;;;-0.10;99.90;;;;;;5032097;28;20201;-87
2023/01/22 00:20:08;;;;;;;3.83;2.90;;;-0.10;99.90;;;;;;5014079;28;20579;-88
2023/01/22 00:22:33;;;;;;;3.77;2.80;;;-0.10;99.90;;;;;;5014211;28;20739;-88
2023/01/22 00:24:59;;;;;;;3.50;2.80;;;-0.10;99.90;;;;;;5032125;28;20260;-88
2023/01/22 00:27:24;;;;;;;3.53;2.80;;;-0.10;99.90;;;;;;5032147;28;20186;-88
2023/01/22 00:29:50;;;;;;;2.90;2.60;;;-0.10;99.90;;;;;;5031826;28;20185;-88
2023/01/22 00:32:16;;;;;;;3.30;2.70;;;-0.10;99.90;;;;;;5014235;28;20243;-88
2023/01/22 00:34:43;;;;;;;5.17;2.27;;;-0.10;99.90;;;;;;5014189;28;20193;-88
2023/01/22 00:37:09;;;;;;;3.10;2.33;;;-0.10;99.90;;;;;;5032028;28;20185;-88
2023/01/22 00:39:35;;;;;;;3.97;2.80;;;-0.10;99.90;;;;;;5031861;28;20208;-88
2023/01/22 00:42:00;;;;;;;2.80;2.40;;;-0.10;99.90;;;;;;5014143;28;20255;-89
2023/01/22 00:44:26;;;;;;;2.63;2.20;;;-0.10;99.90;;;;;;5032174;28;20183;-88
2023/01/22 00:46:51;;;;;;;2.90;2.43;;;-0.10;99.90;;;;;;5031916;28;20188;-88
2023/01/22 00:49:17;;;;;;;3.67;2.50;;;-0.10;99.90;;;;;;5014061;28;20659;-88
2023/01/22 00:51:42;;;;;;;2.50;2.27;;;-0.10;99.90;;;;;;5013892;28;20209;-88
2023/01/22 00:54:08;;;;;;;3.37;2.40;;;-0.10;99.90;;;;;;5014094;28;20175;-87
2023/01/22 00:56:33;;;;;;;3.73;2.47;;;-0.10;99.90;;;;;;5034583;28;20228;-88
2023/01/22 00:58:59;;;;;;;2.67;2.17;;;-0.10;99.90;;;;;;5035576;28;20209;-88
2023/01/22 01:01:24;;;;;;;2.77;2.40;;;-0.10;99.90;;;;;;5035579;28;20181;-87
2023/01/22 01:03:50;;;;;;;3.43;2.43;;;-0.20;99.90;;;;;;5035827;28;20176;-88
2023/01/22 01:06:18;;;;;;;2.67;2.10;;;-0.10;99.90;;;;;;5035715;28;20164;-87
2023/01/22 01:08:45;;;;;;;2.60;2.10;;;-0.10;99.90;;;;;;5035657;28;20234;-88
2023/01/22 01:11:14;;;;;;;2.90;2.30;;;-0.20;99.90;;;;;;5017621;28;20178;-88
2023/01/22 01:13:42;;;;;;;3.10;2.50;;;-0.20;99.90;;;;;;5035486;28;20252;-88
2023/01/22 01:16:16;;;;;;;2.97;2.00;;;-0.10;99.90;;;;;;5017308;28;20184;-88
2023/01/22 01:18:42;;;;;;;2.90;2.40;;;-0.10;99.90;;;;;;5035407;28;20232;-88
2023/01/22 01:21:09;;;;;;;2.57;2.30;;;-0.10;99.90;;;;;;5035298;28;20178;-88
2023/01/22 01:23:35;;;;;;;3.10;2.60;;;-0.10;99.90;;;;;;5017572;28;20174;-87
2023/01/22 01:26:10;;;;;;;2.57;2.20;;;-0.10;99.90;;;;;;5017333;28;20200;-87
2023/01/22 01:28:36;;;;;;;2.50;2.17;;;-0.10;99.90;;;;;;5034991;28;20180;-88
2023/01/22 01:31:03;;;;;;;3.77;2.63;;;-0.10;99.90;;;;;;5017353;28;20177;-88
2023/01/22 01:33:29;;;;;;;3.57;2.60;;;-0.10;99.90;;;;;;5017279;28;20591;-88
2023/01/22 01:36:03;;;;;;;3.00;2.27;;;-0.10;99.90;;;;;;5021120;28;20177;-87
2023/01/22 01:38:29;;;;;;;2.63;2.23;;;-0.10;99.90;;;;;;5018529;28;20196;-88
2023/01/22 01:40:55;;;;;;;3.30;2.63;;;-0.10;99.90;;;;;;5034849;28;20618;-88
2023/01/22 01:43:21;;;;;;;2.80;2.50;;;-0.10;99.90;;;;;;5034828;28;20706;-88
2023/01/22 01:45:47;;;;;;;2.30;2.10;;;-0.10;99.90;;;;;;5034927;28;20174;-87
2023/01/22 01:48:24;;;;;;;2.87;2.40;;;-0.10;99.90;;;;;;5034842;28;20644;-88
2023/01/22 01:51:13;;;;;;;2.90;2.23;;;0.00;99.90;;;;;;5034681;28;20639;-87
2023/01/22 01:53:41;;;;;;;3.10;2.57;;;-0.10;99.90;;;;;;5016298;28;20235;-88
2023/01/22 01:56:12;;;;;;;2.70;2.17;;;-0.10;99.90;;;;;;5017287;28;20208;-87
2023/01/22 01:58:40;;;;;;;2.90;2.37;;;-0.10;99.90;;;;;;5034555;28;20678;-87
2023/01/22 02:01:17;;;;;;;3.40;2.57;;;-0.10;99.90;;;;;;5034341;28;20201;-87
2023/01/22 02:03:44;;;;;;;2.80;2.33;;;-0.10;99.90;;;;;;5034421;28;20185;-88
2023/01/22 02:06:16;;;;;;;2.43;2.13;;;0.00;99.90;;;;;;5016587;28;20196;-88
2023/01/22 02:08:45;;;;;;;3.10;2.40;;;-0.10;99.90;;;;;;5016112;28;20189;-87
2023/01/22 02:11:12;;;;;;;2.73;2.20;;;0.00;99.90;;;;;;5016590;28;20239;-88
2023/01/22 02:13:43;;;;;;;2.43;2.23;;;-0.10;99.90;;;;;;5034412;28;20187;-88
2023/01/22 02:16:10;;;;;;;2.97;2.23;;;0.00;99.90;;;;;;5016428;28;20231;-87
2023/01/22 02:18:36;;;;;;;2.60;2.30;;;0.00;99.90;;;;;;5034318;28;20263;-88
2023/01/22 02:21:02;;;;;;;2.70;2.10;;;-0.10;99.90;;;;;;5016412;28;20185;-88
2023/01/22 02:23:30;;;;;;;2.57;2.23;;;-0.10;99.90;;;;;;5016302;28;20193;-87
2023/01/22 02:25:57;;;;;;;2.93;2.13;;;-0.10;99.90;;;;;;5033966;28;20202;-87
2023/01/22 02:28:22;;;;;;;2.90;2.33;;;0.00;99.90;;;;;;5016259;28;20178;-88
2023/01/22 02:30:48;;;;;;;2.20;1.93;;;0.00;99.90;;;;;;5016136;28;20176;-87
2023/01/22 02:33:14;;;;;;;2.83;2.50;;;-0.10;99.90;;;;;;5044892;22;20300;-86
2023/01/22 02:35:40;;;;;;;2.40;2.20;;;0.00;99.90;;;;;;5013035;28;20174;-86
2023/01/22 02:38:05;;;;;;;3.07;2.30;;;0.00;99.90;;;;;;5012755;28;20174;-86
2023/01/22 02:40:32;;;;;;;2.93;2.27;;;0.00;99.90;;;;;;5012844;28;20241;-86
2023/01/22 02:42:58;;;;;;;2.97;2.57;;;0.00;99.90;;;;;;5012757;28;20200;-86
2023/01/22 02:45:25;;;;;;;2.47;2.27;;;-0.10;99.90;;;;;;5013975;28;20639;-86
2023/01/22 02:47:50;;;;;;;2.77;2.17;;;0.00;99.90;;;;;;5012817;28;20174;-86
2023/01/22 02:50:17;;;;;;;2.73;2.03;;;0.00;99.90;;;;;;5012595;28;20202;-86
2023/01/22 02:52:42;;;;;;;3.13;2.30;;;-0.10;99.90;;;;;;5013046;28;20202;-86
2023/01/22 02:55:08;;;;;;;2.90;2.60;;;-0.10;99.90;;;;;;5014222;28;20289;-86
2023/01/22 02:57:34;;;;;;;2.63;2.23;;;-0.10;99.90;;;;;;5012632;28;20182;-87
2023/01/22 02:59:59;;;;;;;2.37;2.17;;;-0.10;99.90;;;;;;5012282;28;20213;-88
2023/01/22 03:02:25;;;;;;;2.60;2.20;;;-0.10;99.90;;;;;;5012648;28;20320;-86
2023/01/22 03:04:51;;;;;;;3.80;2.00;;;0.00;99.90;;;;;;5012758;28;20240;-86
2023/01/22 03:07:17;;;;;;;2.73;2.33;;;0.00;99.90;;;;;;5013501;28;20696;-86
2023/01/22 03:09:44;;;;;;;2.40;2.10;;;0.00;99.90;;;;;;5013337;28;20178;-86
2023/01/22 03:12:11;;;;;;;2.80;2.50;;;-0.10;99.90;;;;;;5012369;28;20194;-86
2023/01/22 03:22:50;;;;;;;3.27;2.27;;;0.00;99.90;;;;;;5013448;28;20213;-86
2023/01/22 03:25:16;;;;;;;2.90;2.30;;;0.00;99.90;;;;;;5012139;28;20174;-86
2023/01/22 03:28:07;;;;;;;2.43;2.10;;;0.00;99.90;;;;;;5012396;28;20671;-86
2023/01/22 03:30:27;;;;;;;2.50;2.30;;;-0.10;99.90;;;;;;5012834;28;20177;-87
2023/01/22 03:32:53;;;;;;;2.80;2.37;;;-0.10;99.90;;;;;;5011887;28;20316;-86
2023/01/22 03:35:18;;;;;;;2.67;2.30;;;0.00;99.90;;;;;;5012204;28;20182;-86
2023/01/22 03:37:44;;;;;;;2.73;2.33;;;-0.10;99.90;;;;;;5013185;28;20181;-86
2023/01/22 03:40:10;;;;;;;2.87;2.53;;;0.00;99.90;;;;;;5012941;28;20218;-86
2023/01/22 03:42:35;;;;;;;3.07;2.40;;;0.00;99.90;;;;;;5011691;28;20202;-87
2023/01/22 03:45:01;;;;;;;3.10;2.37;;;-0.10;99.90;;;;;;5011738;28;20178;-86
2023/01/22 03:47:27;;;;;;;3.13;2.40;;;-0.10;99.90;;;;;;5012078;28;20231;-86
2023/01/22 03:49:52;;;;;;;2.43;2.23;;;0.00;99.90;;;;;;5011522;28;20178;-86
2023/01/22 03:52:18;;;;;;;2.50;2.30;;;-0.10;99.90;;;;;;5011741;28;20230;-86
2023/01/22 03:54:43;;;;;;;2.87;2.20;;;-0.10;99.90;;;;;;5011728;28;20193;-86
2023/01/22 03:57:09;;;;;;;2.93;2.57;;;-0.10;99.90;;;;;;5011955;28;20186;-86
2023/01/22 03:59:34;;;;;;;2.80;2.37;;;0.00;99.90;;;;;;5011311;28;20242;-86
2023/01/22 04:02:00;;;;;;;2.57;2.20;;;0.00;99.90;;;;;;5011284;28;20313;-87
2023/01/22 04:04:25;;;;;;;2.97;2.27;;;0.00;99.90;;;;;;5011457;28;20173;-86
2023/01/22 04:06:51;;;;;;;2.50;2.30;;;0.00;99.90;;;;;;5011414;28;20182;-86
2023/01/22 04:09:17;;;;;;;3.10;2.63;;;0.00;99.90;;;;;;5012594;28;20195;-86
2023/01/22 04:11:42;;;;;;;2.53;2.20;;;0.00;99.90;;;;;;5011146;28;20179;-87
2023/01/22 04:14:08;;;;;;;2.90;2.60;;;0.00;99.90;;;;;;5011433;28;20182;-87
2023/01/22 04:16:34;;;;;;;2.80;2.50;;;0.00;99.90;;;;;;5012188;28;20178;-86
2023/01/22 04:19:00;;;;;;;2.83;2.53;;;0.00;99.90;;;;;;5012493;28;20624;-86
2023/01/22 04:21:26;;;;;;;2.90;2.57;;;0.00;99.90;;;;;;5012369;28;20219;-86
2023/01/22 04:23:51;;;;;;;3.00;2.27;;;0.00;99.90;;;;;;5011075;28;20198;-86
2023/01/22 04:26:17;;;;;;;2.63;2.43;;;0.00;99.90;;;;;;5011255;28;20277;-88
2023/01/22 04:28:42;;;;;;;2.57;2.37;;;0.00;99.90;;;;;;5011298;28;20240;-86
2023/01/22 04:31:09;;;;;;;2.90;2.60;;;-0.10;99.90;;;;;;5010910;28;20210;-86
2023/01/22 04:33:34;;;;;;;2.67;2.47;;;0.00;99.90;;;;;;5011074;28;20263;-86
2023/01/22 04:36:00;;;;;;;3.07;2.57;;;-0.10;99.90;;;;;;5011046;28;20185;-86
2023/01/22 04:38:25;;;;;;;2.73;2.50;;;-0.10;99.90;;;;;;5010996;28;20193;-87
2023/01/22 04:40:51;;;;;;;2.87;2.57;;;-0.10;99.90;;;;;;5012305;28;20263;-86
2023/01/22 04:43:17;;;;;;;2.67;2.20;;;0.00;99.90;;;;;;5010881;28;20289;-86
2023/01/22 04:45:42;;;;;;;2.60;2.03;;;-0.10;99.90;;;;;;5012180;28;20178;-86
2023/01/22 04:48:09;;;;;;;3.27;2.60;;;-0.10;99.90;;;;;;5012322;28;20186;-86
2023/01/22 04:50:35;;;;;;;2.80;2.30;;;-0.10;99.90;;;;;;5011878;28;20186;-86
2023/01/22 04:53:01;;;;;;;2.53;2.33;;;0.00;99.90;;;;;;5010875;28;20212;-86
2023/01/22 04:55:28;;;;;;;2.90;2.50;;;0.00;99.90;;;;;;5011009;28;20220;-86
2023/01/22 04:57:55;;;;;;;2.57;2.30;;;0.00;99.90;;;;;;5012032;28;20201;-86
2023/01/22 05:00:21;;;;;;;2.50;2.30;;;0.00;99.90;;;;;;5010893;28;20764;-86
2023/01/22 05:02:47;;;;;;;2.40;2.20;;;0.00;99.90;;;;;;5010762;28;20199;-87
2023/01/22 05:05:13;;;;;;;2.33;2.13;;;0.00;99.90;;;;;;5010950;28;20227;-88
2023/01/22 05:07:38;;;;;;;3.03;2.50;;;-0.10;99.90;;;;;;5010853;28;20179;-86
2023/01/22 05:10:04;;;;;;;2.30;2.10;;;0.00;99.90;;;;;;5010540;28;20187;-86
2023/01/22 05:12:30;;;;;;;2.43;2.23;;;0.00;99.90;;;;;;5010791;28;20825;-86
2023/01/22 05:14:55;;;;;;;2.33;2.13;;;0.00;99.90;;;;;;5010751;28;20273;-86
2023/01/22 05:17:21;;;;;;;2.47;2.27;;;0.00;99.90;;;;;;5010493;28;20277;-87
2023/01/22 05:19:46;;;;;;;2.80;2.07;;;0.00;99.90;;;;;;5011917;28;20214;-86
2023/01/22 05:22:12;;;;;;;3.27;2.53;;;0.00;99.90;;;;;;5010587;28;20286;-86
2023/01/22 05:24:38;;;;;;;2.63;2.30;;;0.00;99.90;;;;;;5011006;28;20179;-86
2023/01/22 05:27:03;;;;;;;2.47;2.20;;;0.00;99.90;;;;;;5010817;28;20205;-87
2023/01/22 05:29:29;;;;;;;2.70;2.50;;;0.00;99.90;;;;;;5010606;28;20182;-86
2023/01/22 05:31:56;;;;;;;3.17;2.63;;;-0.10;99.90;;;;;;5010422;28;20552;-86
2023/01/22 05:34:22;;;;;;;2.53;2.33;;;0.00;99.90;;;;;;5010566;28;20178;-88
2023/01/22 05:36:48;;;;;;;2.70;2.47;;;0.00;99.90;;;;;;5010454;28;20225;-87
2023/01/22 05:39:15;;;;;;;2.67;2.47;;;0.00;99.90;;;;;;5010680;28;20213;-87
2023/01/22 05:41:41;;;;;;;2.87;2.57;;;0.00;99.90;;;;;;5010500;28;20174;-86
2023/01/22 05:44:10;;;;;;;2.87;2.50;;;0.00;99.90;;;;;;5013854;28;20322;-86
2023/01/22 05:46:36;;;;;;;2.80;2.50;;;0.00;99.90;;;;;;5015236;28;20182;-86
2023/01/22 05:49:02;;;;;;;2.97;2.40;;;0.00;99.90;;;;;;5015086;28;20675;-86
2023/01/22 05:51:28;;;;;;;2.77;2.27;;;0.00;99.90;;;;;;5014888;28;20178;-86
2023/01/22 05:53:54;;;;;;;2.83;2.60;;;0.00;99.90;;;;;;5013979;28;20209;-86
2023/01/22 05:56:19;;;;;;;2.40;2.20;;;0.00;99.90;;;;;;5015164;28;20167;-86
2023/01/22 05:58:45;;;;;;;3.20;2.53;;;0.00;99.90;;;;;;5014858;28;20198;-86
2023/01/22 06:01:11;;;;;;;2.30;2.10;;;0.10;99.90;;;;;;5014909;28;20178;-86
2023/01/22 06:03:37;;;;;;;2.37;2.17;;;0.10;99.90;;;;;;5013630;28;20221;-86
2023/01/22 06:06:09;;;;;;;3.10;2.27;;;0.10;99.90;;;;;;5013515;28;20171;-86
2023/01/22 06:08:34;;;;;;;2.80;2.40;;;0.00;99.90;;;;;;5014037;28;20178;-82
2023/01/22 06:11:05;;;;;;;41.53;16.37;;;0.10;99.90;;;;;;5013859;28;20200;-81
2023/01/22 06:13:32;;;;;;;26.07;12.40;;;0.30;99.90;;;;;;5014185;28;20217;-80
2023/01/22 06:15:58;;;;;;;9.43;5.43;;;1.00;99.90;;;;;;5013469;28;20170;-80
2023/01/22 06:18:24;;;;;;;6.80;5.10;;;1.60;99.90;;;;;;5013664;28;20649;-79
2023/01/22 06:20:50;;;;;;;2.67;2.47;;;1.90;99.90;;;;;;5013831;28;20237;-79
2023/01/22 06:23:16;;;;;;;3.17;2.60;;;1.90;99.90;;;;;;5014297;28;20226;-81
2023/01/22 06:25:42;;;;;;;2.33;2.07;;;1.90;99.90;;;;;;5016489;28;20199;-80
2023/01/22 06:28:07;;;;;;;2.17;2.00;;;1.40;99.90;;;;;;5015384;28;20247;-80
2023/01/22 06:30:34;;;;;;;2.50;2.30;;;1.20;99.90;;;;;;5015031;28;20179;-81
2023/01/22 06:33:00;;;;;;;2.70;2.50;;;0.80;99.90;;;;;;5015371;28;20233;-79
2023/01/22 06:35:25;;;;;;;2.30;2.10;;;0.60;99.90;;;;;;5015190;28;20298;-79
2023/01/22 06:37:51;;;;;;;2.80;2.50;;;0.40;99.90;;;;;;5014982;28;20179;-80
2023/01/22 06:40:16;;;;;;;3.20;2.90;;;0.30;99.90;;;;;;5014527;28;20271;-81
2023/01/22 06:42:42;;;;;;;3.43;2.50;;;0.30;99.90;;;;;;5014163;28;20199;-80
2023/01/22 06:45:08;;;;;;;2.43;2.20;;;0.20;99.90;;;;;;5015180;28;20326;-80
2023/01/22 06:47:34;;;;;;;12.37;8.33;;;0.20;99.90;;;;;;5014710;28;20171;-80
2023/01/22 06:49:59;;;;;;;5.37;3.80;;;0.20;99.90;;;;;;5015082;28;20181;-80
2023/01/22 06:52:25;;;;;;;4.70;3.87;;;0.20;99.90;;;;;;5015147;28;20317;-80
2023/01/22 06:54:51;;;;;;;3.10;2.50;;;0.20;99.90;;;;;;5014661;28;20185;-81
2023/01/22 06:57:16;;;;;;;2.63;2.43;;;0.20;99.90;;;;;;5015712;28;20202;-80
2023/01/22 06:59:42;;;;;;;2.63;2.43;;;0.10;99.90;;;;;;5017831;28;20210;-80
2023/01/22 07:02:14;;;;;;;4.33;2.70;;;0.10;99.90;;;;;;5014825;28;20215;-83
2023/01/22 07:04:39;;;;;;;4.50;4.07;;;0.10;99.90;;;;;;5013092;28;20182;-83
2023/01/22 07:07:05;;;;;;;3.40;3.10;;;0.10;99.90;;;;;;5014009;28;20188;-83
2023/01/22 07:09:31;;;;;;;3.27;2.97;;;0.10;99.90;;;;;;5012954;28;20181;-83
2023/01/22 07:11:59;;;;;;;3.30;3.00;;;0.10;99.90;;;;;;5016836;28;20570;-84
2023/01/22 07:14:24;;;;;;;3.40;3.10;;;0.10;99.90;;;;;;5014823;28;20185;-83
2023/01/22 07:16:50;;;;;;;2.87;2.53;;;0.10;99.90;;;;;;5012999;28;20177;-83
2023/01/22 07:19:15;;;;;;;3.13;2.83;;;0.00;99.90;;;;;;5013033;28;20301;-83
2023/01/22 07:21:41;;;;;;;4.30;3.30;;;0.00;99.90;;;;;;5012420;28;20205;-83
2023/01/22 07:24:07;;;;;;;3.43;3.00;;;0.00;99.90;;;;;;5012267;28;20178;-83
2023/01/22 07:26:32;;;;;;;2.93;2.60;;;0.00;99.90;;;;;;5012860;28;20193;-82
2023/01/22 07:28:58;;;;;;;3.23;2.53;;;0.00;99.90;;;;;;5013672;28;20187;-82
2023/01/22 07:31:23;;;;;;;2.77;2.47;;;0.00;99.90;;;;;;5013313;28;20182;-83
2023/01/22 07:33:49;;;;;;;4.13;2.90;;;0.00;99.90;;;;;;5012190;28;20629;-82
2023/01/22 07:36:14;;;;;;;3.83;2.90;;;0.00;99.90;;;;;;5014050;28;20186;-82
2023/01/22 07:38:40;;;;;;;4.07;3.03;;;0.00;99.90;;;;;;5012784;28;20614;-80
2023/01/22 07:41:06;;;;;;;5.17;3.77;;;0.10;99.90;;;;;;5012860;28;20265;-79
2023/01/22 07:43:32;;;;;;;4.73;4.13;;;0.10;99.90;;;;;;5013406;28;20285;-80
2023/01/22 07:46:01;;;;;;;3.63;3.00;;;0.10;99.90;;;;;;5014006;28;20178;-80
2023/01/22 07:48:27;;;;;;;3.83;3.13;;;0.20;99.90;;;;;;5012696;28;20232;-80
2023/01/22 07:50:53;;;;;;;3.90;3.30;;;0.20;99.90;;;;;;5013976;28;20202;-80
2023/01/22 07:53:18;;;;;;;5.30;3.40;;;0.20;99.90;;;;;;5014127;28;20225;-80
2023/01/22 07:55:44;;;;;;;4.80;3.97;;;0.20;99.90;;;;;;5013030;28;20177;-80
2023/01/22 07:58:10;;;;;;;5.43;4.60;;;0.20;99.90;;;;;;5013049;28;20201;-80
2023/01/22 08:00:36;;;;;;;5.43;3.23;;;0.30;99.90;;;;;;5012850;28;20206;-80
2023/01/22 08:03:05;;;;;;;5.23;4.50;;;0.30;99.90;;;;;;5012059;28;20205;-83
2023/01/22 08:05:31;;;;;;;4.30;3.40;;;0.30;99.90;;;;;;5012692;28;20191;-81
2023/01/22 08:07:58;;;;;;;4.67;3.80;;;0.50;99.90;;;;;;5013078;28;20202;-83
2023/01/22 08:10:23;;;;;;;4.30;3.60;;;0.50;99.90;;;;;;5013002;28;20267;-82
2023/01/22 08:12:49;;;;;;;4.20;3.13;;;0.60;99.90;;;;;;5012091;28;20240;-82
2023/01/22 08:15:15;;;;;;;3.63;3.10;;;0.70;99.90;;;;;;5012225;28;20278;-81
2023/01/22 08:17:41;;;;;;;3.30;3.00;;;0.70;99.90;;;;;;5013150;28;20648;-83
2023/01/22 08:20:07;;;;;;;4.50;3.50;;;0.70;99.90;;;;;;5011359;28;20202;-82
2023/01/22 08:22:33;;;;;;;3.60;2.60;;;0.90;99.90;;;;;;5012462;28;20269;-83
2023/01/22 08:24:58;;;;;;;3.27;2.70;;;0.90;99.90;;;;;;5011703;28;20171;-83
2023/01/22 08:27:24;;;;;;;3.00;2.67;;;0.80;99.90;;;;;;5011484;28;20178;-83
2023/01/22 08:29:50;;;;;;;3.50;3.10;;;0.90;99.90;;;;;;5011152;28;20175;-82
2023/01/22 08:32:17;;;;;;;4.17;3.40;;;0.90;99.90;;;;;;5012371;28;20225;-82
2023/01/22 08:34:43;;;;;;;6.20;5.30;;;1.00;99.90;;;;;;5011171;28;20186;-82
2023/01/22 08:37:08;;;;;;;4.07;3.67;;;1.00;99.90;;;;;;5011404;28;20189;-83
2023/01/22 08:39:34;;;;;;;3.30;3.00;;;0.90;99.90;;;;;;5011114;28;20681;-82
2023/01/22 08:41:59;;;;;;;3.00;2.70;;;1.00;99.90;;;;;;5011056;28;20190;-83
2023/01/22 08:44:25;;;;;;;3.27;2.77;;;0.90;99.90;;;;;;5011114;28;20175;-83
2023/01/22 08:46:51;;;;;;;4.60;3.83;;;0.90;99.90;;;;;;5011252;28;20218;-83
2023/01/22 08:49:22;;;;;;;3.47;2.63;;;0.90;99.90;;;;;;5010968;28;20229;-83
2023/01/22 08:51:49;;;;;;;3.37;3.07;;;0.80;99.90;;;;;;5011162;28;20185;-83
2023/01/22 08:54:16;;;;;;;3.60;2.70;;;0.90;99.90;;;;;;5013249;28;20186;-82
2023/01/22 08:56:41;;;;;;;2.97;2.67;;;0.90;99.90;;;;;;5011688;28;20631;-82
2023/01/22 08:59:07;;;;;;;2.63;2.43;;;0.90;99.90;;;;;;5012662;28;20230;-80
2023/01/22 09:01:33;;;;;;;4.50;2.60;;;0.90;99.90;;;;;;5011396;28;20185;-82
2023/01/22 09:03:59;;;;;;;3.73;2.80;;;0.90;99.90;;;;;;5014272;28;20174;-83
2023/01/22 09:06:26;;;;;;;2.70;2.50;;;1.00;99.90;;;;;;5017772;28;20170;-83
2023/01/22 09:08:52;;;;;;;3.83;2.70;;;1.00;99.90;;;;;;5012651;28;20186;-83
2023/01/22 09:11:18;;;;;;;2.40;2.20;;;1.10;99.90;;;;;;5012603;28;20239;-82
2023/01/22 09:13:43;;;;;;;2.83;2.23;;;1.10;99.90;;;;;;5013505;28;20233;-82
2023/01/22 09:16:09;;;;;;;3.87;3.27;;;1.00;99.90;;;;;;5012915;28;20180;-82
2023/01/22 09:18:38;;;;;;;6.67;5.87;;;1.00;99.90;;;;;;5012620;28;20183;-81
2023/01/22 09:21:05;;;;;;;4.60;4.20;;;0.80;99.90;;;;;;5014800;28;20186;-80
2023/01/22 09:23:30;;;;;;;2.43;2.23;;;0.70;99.90;;;;;;5017284;28;20574;-80
2023/01/22 09:25:56;;;;;;;2.93;2.63;;;0.80;99.90;;;;;;5014347;28;20193;-80
2023/01/22 09:28:22;;;;;;;3.50;2.90;;;0.70;99.90;;;;;;5014760;28;20175;-80
2023/01/22 09:30:47;;;;;;;2.60;2.30;;;0.60;99.90;;;;;;5015333;28;20479;-83
2023/01/22 09:33:13;;;;;;;4.33;3.93;;;0.70;99.90;;;;;;5014058;28;20218;-81
2023/01/22 09:35:38;;;;;;;3.10;2.80;;;0.70;99.90;;;;;;5013881;28;20186;-81
2023/01/22 09:38:04;;;;;;;10.73;9.70;;;0.70;99.90;;;;;;5015567;28;20181;-80
2023/01/22 09:40:31;;;;;;;3.90;3.53;;;0.80;99.90;;;;;;5014610;28;20214;-80
2023/01/22 09:43:04;;;;;;;2.67;2.40;;;0.80;99.90;;;;;;5015737;28;20242;-80
2023/01/22 09:45:32;;;;;;;2.87;2.67;;;0.90;99.90;;;;;;5015935;28;20185;-80
2023/01/22 09:48:01;;;;;;;4.80;4.30;;;1.00;99.90;;;;;;5015701;28;20178;-80
2023/01/22 09:50:30;;;;;;;3.17;2.70;;;1.00;99.90;;;;;;5017557;28;20184;-80
2023/01/22 09:52:59;;;;;;;4.37;3.53;;;1.20;99.90;;;;;;5015802;28;20205;-82
2023/01/22 09:55:30;;;;;;;2.87;2.53;;;1.40;99.90;;;;;;5016826;28;20186;-80
2023/01/22 09:57:58;;;;;;;2.83;2.30;;;1.60;99.90;;;;;;5015997;28;20250;-79
2023/01/22 10:00:36;;;;;;;3.00;2.70;;;1.80;99.90;;;;;;5016672;28;20218;-80
2023/01/22 10:03:09;;;;;;;2.93;2.63;;;2.00;99.90;;;;;;5015408;28;20202;-82
2023/01/22 10:05:38;;;;;;;2.40;2.20;;;2.00;99.90;;;;;;5016620;28;20191;-79
2023/01/22 10:08:15;;;;;;;3.03;2.80;;;1.90;99.90;;;;;;5015035;28;20241;-79
2023/01/22 10:10:41;;;;;;;3.10;2.80;;;1.80;99.90;;;;;;5014801;28;20171;-79
2023/01/22 10:13:27;;;;;;;2.37;2.10;;;1.80;99.90;;;;;;5014965;28;20203;-79
2023/01/22 10:15:54;;;;;;;2.87;2.67;;;1.80;99.90;;;;;;5015371;28;20171;-79
2023/01/22 10:18:26;;;;;;;2.30;2.10;;;1.70;99.90;;;;;;5015629;28;20179;-79
2023/01/22 10:20:53;;;;;;;2.33;2.10;;;1.70;99.90;;;;;;5016401;28;20186;-79
2023/01/22 10:23:24;;;;;;;3.30;2.50;;;1.60;99.90;;;;;;5015232;28;20302;-79
2023/01/22 10:25:54;;;;;;;2.50;2.10;;;1.80;99.90;;;;;;5014483;28;20175;-80
2023/01/22 10:28:24;;;;;;;2.40;2.20;;;2.10;99.90;;;;;;5013845;28;20267;-79
2023/01/22 10:30:56;;;;;;;2.13;1.93;;;2.00;99.90;;;;;;5011750;28;20198;-79
2023/01/22 10:33:24;;;;;;;2.23;2.03;;;2.00;99.90;;;;;;5015105;28;20828;-76
2023/01/22 10:35:52;;;;;;;2.20;2.00;;;1.90;99.90;;;;;;5013958;28;20175;-79
2023/01/22 10:38:27;;;;;;;2.60;2.33;;;1.90;99.90;;;;;;5013992;28;20638;-79
2023/01/22 10:41:02;;;;;;;24.27;18.60;;;1.90;99.90;;;;;;5012904;28;20194;-79
2023/01/22 10:43:32;;;;;;;4.20;3.80;;;1.90;99.90;;;;;;5012871;28;20190;-79
2023/01/22 10:46:22;;;;;;;3.00;2.70;;;1.70;99.90;;;;;;5015902;28;20171;-79
2023/01/22 10:48:58;;;;;;;2.20;2.00;;;1.70;99.90;;;;;;5014906;28;20179;-79
2023/01/22 10:51:36;;;;;;;2.37;1.93;;;1.80;99.90;;;;;;5015221;28;20250;-79
2023/01/22 10:54:02;;;;;;;3.17;2.73;;;1.80;99.90;;;;;;5015413;28;20519;-79
2023/01/22 10:56:39;;;;;;;2.63;2.37;;;1.80;99.90;;;;;;5014058;28;20175;-79
2023/01/22 10:59:16;;;;;;;2.73;2.50;;;1.80;99.90;;;;;;5014819;28;20209;-79
2023/01/22 11:01:42;;;;;;;2.40;2.13;;;1.80;99.90;;;;;;4994469;28;20183;-79
2023/01/22 11:04:13;;;;;;;4.63;4.23;;;1.80;99.90;;;;;;4994584;28;20199;-79
2023/01/22 11:06:44;;;;;;;3.07;2.53;;;1.80;99.90;;;;;;5007205;28;20183;-79
2023/01/22 11:09:15;;;;;;;2.37;2.07;;;1.70;99.90;;;;;;5013312;28;20178;-79
2023/01/22 11:11:47;;;;;;;2.37;2.00;;;1.80;99.90;;;;;;5011001;28;20171;-78
2023/01/22 11:14:32;;;;;;;2.20;2.00;;;1.80;99.90;;;;;;5014171;28;20168;-80
2023/01/22 11:17:12;;;;;;;2.53;1.90;;;1.80;99.90;;;;;;5004563;28;20184;-80
2023/01/22 11:19:47;;;;;;;2.83;2.53;;;1.80;99.90;;;;;;4995120;28;20273;-79
2023/01/22 11:22:28;;;;;;;2.53;2.20;;;1.80;99.90;;;;;;4995289;28;20195;-79
2023/01/22 11:24:53;;;;;;;2.63;2.27;;;1.80;99.90;;;;;;5002583;28;20166;-80
2023/01/22 11:27:34;;;;;;;4.30;3.90;;;1.90;99.90;;;;;;5034349;28;20704;-80
2023/01/22 11:30:21;;;;;;;3.30;2.90;;;1.90;99.90;;;;;;5033157;28;20659;-79
2023/01/22 11:33:00;;;;;;;2.87;2.50;;;2.00;99.90;;;;;;5033792;28;20589;-80
2023/01/22 11:35:44;;;;;;;2.90;2.60;;;2.10;99.90;;;;;;5034620;28;20182;-80
2023/01/22 11:38:28;;;;;;;3.47;3.10;;;2.10;99.90;;;;;;5033437;28;20178;-78
2023/01/22 11:41:31;;;;;;;2.40;2.20;;;2.10;99.90;;;;;;5011994;28;20299;-78
2023/01/22 11:44:24;;;;;;;2.50;2.10;;;2.20;99.90;;;;;;5015043;28;20285;-80
2023/01/22 11:47:08;;;;;;;3.80;2.37;;;2.20;99.90;;;;;;5014798;28;20160;-78
2023/01/22 11:49:56;;;;;;;2.70;2.50;;;2.10;99.90;;;;;;5014539;28;20175;-79
2023/01/22 11:52:44;;;;;;;2.27;1.90;;;2.10;99.90;;;;;;5012767;28;20225;-79
2023/01/22 11:55:09;;;;;;;2.57;2.03;;;2.20;99.90;;;;;;5013142;28;20175;-78
2023/01/22 11:57:42;;;;;;;2.03;1.80;;;2.10;99.90;;;;;;5014340;28;20646;-79
2023/01/22 12:00:27;;;;;;;2.30;2.10;;;2.00;99.90;;;;;;5014432;28;20201;-78
2023/01/22 12:03:15;;;;;;;2.50;2.03;;;1.90;99.90;;;;;;5014511;28;20196;-78
2023/01/22 12:05:43;;;;;;;2.43;2.00;;;2.00;99.90;;;;;;5013102;28;20258;-78
2023/01/22 12:08:16;;;;;;;2.17;1.97;;;2.00;99.90;;;;;;5013276;28;20175;-79
2023/01/22 12:10:53;;;;;;;2.13;1.93;;;2.10;99.90;;;;;;5013775;28;20254;-79
2023/01/22 12:13:31;;;;;;;4.57;2.47;;;2.00;99.90;;;;;;5013521;28;20280;-78
2023/01/22 12:15:59;;;;;;;2.30;2.10;;;2.10;99.90;;;;;;5012054;28;20183;-78
2023/01/22 12:18:56;;;;;;;3.90;2.30;;;2.90;99.90;;;;;;5013352;28;20189;-78
2023/01/22 12:21:27;;;;;;;2.10;1.87;;;3.60;99.90;;;;;;5011870;28;20175;-78
2023/01/22 12:24:01;;;;;;;2.33;1.80;;;4.40;99.90;;;;;;5012732;28;20219;-79
2023/01/22 12:26:31;;;;;;;2.03;1.83;;;4.70;99.90;;;;;;5011661;28;20165;-78
2023/01/22 12:29:24;;;;;;;2.50;1.60;;;5.90;99.90;;;;;;5013120;28;20176;-78
2023/01/22 12:31:57;;;;;;;1.60;1.50;;;7.40;99.90;;;;;;5012749;28;20171;-79
2023/01/22 12:34:31;;;;;;;1.70;1.60;;;7.00;99.90;;;;;;5012818;28;20229;-78
2023/01/22 12:36:58;;;;;;;2.70;2.00;;;6.80;99.90;;;;;;5011829;28;20641;-78
2023/01/22 12:39:39;;;;;;;3.37;2.60;;;6.90;99.90;;;;;;5012072;28;20566;-78
2023/01/22 12:42:05;;;;;;;3.07;2.50;;;6.70;99.90;;;;;;4997561;28;20195;-80
2023/01/22 12:44:58;;;;;;;2.40;2.20;;;5.10;99.90;;;;;;5012349;28;20172;-78
2023/01/22 12:47:47;;;;;;;2.70;1.87;;;4.40;99.90;;;;;;5012300;28;20263;-80
2023/01/22 12:50:21;;;;;;;3.03;2.70;;;3.70;99.90;;;;;;5011775;28;20214;-82
2023/01/22 12:53:22;;;;;;;2.23;2.03;;;3.40;99.90;;;;;;5014847;28;20237;-80
2023/01/22 12:56:05;;;;;;;6.27;4.90;;;3.30;99.90;;;;;;5015842;28;20183;-81
2023/01/22 12:58:39;;;;;;;3.30;2.90;;;3.40;99.90;;;;;;5017111;28;20196;-81
2023/01/22 13:01:10;;;;;;;4.23;3.70;;;3.00;99.90;;;;;;5017248;28;20252;-80
2023/01/22 13:03:38;;;;;;;22.93;18.30;;;2.70;99.90;;;;;;5017599;28;20285;-80
2023/01/22 13:06:31;;;;;;;6.43;4.73;;;2.60;99.90;;;;;;5016668;28;20196;-78
2023/01/22 13:08:56;;;;;;;3.93;3.00;;;2.40;99.90;;;;;;5017510;28;20217;-79
2023/01/22 13:11:40;;;;;;;11.17;8.83;;;2.20;99.90;;;;;;5015989;28;20180;-78